Time;durP1;ratioP1;P1;durP2;ratioP2;P2;SDS_P1;SDS_P2;PMS_P1;PMS_P2;Temp;Humidity;BMP_temperature;BMP_pressure;BME280_temperature;BME280_humidity;BME280_pressure;Samples;Min_cycle;Max_cycle;Signal;HPM_P1;HPM_P2
2022/11/11 00:01:55;;;;;;;17.47;5.40;;;;;;;9.42;100.00;101331.41;5036246;28;20036;-72
2022/11/11 00:04:21;;;;;;;11.40;4.97;;;;;;;9.43;100.00;101327.75;5002694;28;20436;-74
2022/11/11 00:06:46;;;;;;;8.93;5.07;;;;;;;9.39;100.00;101323.72;5015032;28;20037;-76
2022/11/11 00:09:12;;;;;;;13.10;5.27;;;;;;;9.45;100.00;101333.78;5014696;28;20028;-75
2022/11/11 00:11:37;;;;;;;8.27;4.87;;;;;;;9.47;100.00;101331.81;5014241;28;20034;-73
2022/11/11 00:14:03;;;;;;;7.80;5.03;;;;;;;9.46;100.00;101327.47;5013667;28;20052;-75
2022/11/11 00:25:04;;;;;;;9.50;5.57;;;;;;;9.42;100.00;101320.78;5014089;28;20029;-75
2022/11/11 00:27:26;;;;;;;13.03;6.50;;;;;;;9.43;100.00;101306.50;5013808;28;20041;-74
2022/11/11 00:29:51;;;;;;;13.60;7.20;;;;;;;9.44;100.00;101310.84;5014028;28;20030;-74
2022/11/11 00:32:23;;;;;;;9.87;6.47;;;;;;;9.43;100.00;101314.47;5013154;28;20037;-74
2022/11/11 00:37:34;;;;;;;13.70;7.83;;;;;;;9.50;100.00;101306.75;5013040;28;20133;-72
2022/11/11 00:40:00;;;;;;;11.67;8.10;;;;;;;9.44;100.00;101305.50;5012994;28;20533;-76
2022/11/11 00:42:29;;;;;;;15.37;8.33;;;;;;;9.52;100.00;101310.94;4995682;28;20382;-74
2022/11/11 00:44:54;;;;;;;10.47;7.90;;;;;;;9.52;100.00;101312.78;4995291;28;20026;-73
2022/11/11 00:52:54;;;;;;;14.43;9.33;;;;;;;9.57;100.00;101302.56;5012887;28;20045;-75
2022/11/11 00:55:20;;;;;;;12.67;8.30;;;;;;;9.58;100.00;101310.41;5013007;28;20124;-75
2022/11/11 00:57:45;;;;;;;12.03;8.47;;;;;;;9.55;100.00;101302.72;5013094;28;20348;-75
2022/11/11 01:00:12;;;;;;;12.03;9.90;;;;;;;9.55;100.00;101312.50;5013195;28;20026;-75
2022/11/11 01:02:37;;;;;;;13.17;9.63;;;;;;;9.51;100.00;101309.28;5012945;28;20735;-75
2022/11/11 01:05:03;;;;;;;10.93;8.13;;;;;;;9.46;100.00;101305.38;5012874;28;20034;-75
2022/11/11 01:07:30;;;;;;;12.50;8.53;;;;;;;9.27;100.00;101279.66;4994785;28;20022;-74
2022/11/11 01:09:55;;;;;;;13.97;7.50;;;;;;;9.45;100.00;101299.22;5013196;28;20472;-73
2022/11/11 01:12:21;;;;;;;12.40;8.00;;;;;;;9.40;100.00;101306.78;5012646;28;20029;-75
2022/11/11 01:14:46;;;;;;;11.13;7.50;;;;;;;9.42;100.00;101315.44;4995101;28;20112;-75
2022/11/11 01:17:12;;;;;;;13.80;7.00;;;;;;;9.39;100.00;101306.94;5012826;28;20030;-75
2022/11/11 01:19:38;;;;;;;8.90;6.70;;;;;;;9.42;100.00;101306.63;5012996;28;20064;-76
2022/11/11 01:22:03;;;;;;;10.83;7.47;;;;;;;9.41;100.00;101308.47;4995284;28;20034;-73
2022/11/11 01:24:29;;;;;;;11.53;7.30;;;;;;;9.37;100.00;101304.41;5012436;28;20420;-75
2022/11/11 01:26:55;;;;;;;12.40;7.13;;;;;;;9.43;100.00;101311.81;5012915;28;20529;-76
2022/11/11 01:29:20;;;;;;;8.93;6.97;;;;;;;9.42;100.00;101315.44;5011466;28;20058;-75
2022/11/11 01:31:46;;;;;;;12.23;7.27;;;;;;;9.42;100.00;101310.13;5012312;28;20032;-74
2022/11/11 01:34:11;;;;;;;10.63;6.60;;;;;;;9.40;100.00;101309.44;5012127;28;20025;-76
2022/11/11 01:36:37;;;;;;;9.47;7.40;;;;;;;9.35;100.00;101293.09;4994905;28;20022;-76
2022/11/11 01:39:02;;;;;;;11.63;6.67;;;;;;;9.47;100.00;101307.88;5012291;28;20021;-73
2022/11/11 01:41:31;;;;;;;9.47;6.60;;;;;;;9.49;100.00;101305.09;5012112;28;20026;-76
2022/11/11 01:44:10;;;;;;;12.53;7.27;;;;;;;9.47;100.00;101299.91;5012333;28;20405;-74
2022/11/11 01:46:57;;;;;;;9.13;7.80;;;;;;;9.52;100.00;101307.44;5012678;28;20025;-76
2022/11/11 01:49:23;;;;;;;12.43;7.90;;;;;;;9.47;100.00;101307.03;4995159;28;20079;-75
2022/11/11 01:52:17;;;;;;;14.33;7.57;;;;;;;9.42;100.00;101307.47;5012683;28;20046;-75
2022/11/11 01:55:02;;;;;;;14.40;8.27;;;;;;;9.44;100.00;101305.50;5012131;28;20042;-74
2022/11/11 01:57:39;;;;;;;13.50;7.17;;;;;;;9.41;100.00;101305.81;5011884;28;20388;-76
2022/11/11 02:00:14;;;;;;;13.10;6.57;;;;;;;9.39;100.00;101306.94;5011789;28;20036;-75
2022/11/11 02:02:47;;;;;;;9.60;6.73;;;;;;;9.39;100.00;101302.44;5011719;28;20515;-74
2022/11/11 02:08:04;;;;;;;13.90;7.47;;;;;;;9.44;100.00;101296.69;5012165;28;20125;-73
2022/11/11 02:10:31;;;;;;;11.63;6.80;;;;;;;9.43;100.00;101298.53;5012324;28;20072;-73
2022/11/11 02:15:42;;;;;;;12.97;8.30;;;;;;;9.41;100.00;101292.50;5012185;28;20036;-74
2022/11/11 02:18:07;;;;;;;15.87;8.20;;;;;;;9.36;100.00;101289.44;5013043;28;20030;-75
2022/11/11 02:20:41;;;;;;;9.10;6.93;;;;;;;9.41;100.00;101291.66;5014310;28;20026;-74
2022/11/11 02:23:13;;;;;;;14.77;7.97;;;;;;;9.43;100.00;101295.88;5016070;28;20480;-75
2022/11/11 02:25:44;;;;;;;21.80;8.77;;;;;;;9.38;100.00;101297.28;4998041;28;20065;-75
2022/11/11 02:28:10;;;;;;;33.03;7.80;;;;;;;9.42;100.00;101296.84;5015795;28;20025;-76
2022/11/11 02:30:36;;;;;;;12.43;6.90;;;;;;;9.38;100.00;101291.97;4998745;28;20037;-74
2022/11/11 02:33:02;;;;;;;10.20;7.40;;;;;;;9.44;100.00;101296.69;5015830;28;20026;-74
2022/11/11 02:35:39;;;;;;;16.73;9.40;;;;;;;9.45;100.00;101293.91;5015794;28;20056;-74
2022/11/11 02:38:10;;;;;;;15.83;10.03;;;;;;;9.41;100.00;101291.66;5015378;28;20121;-77
2022/11/11 02:43:27;;;;;;;12.63;8.57;;;;;;;9.29;100.00;101283.03;5015472;28;20054;-75
2022/11/11 02:45:53;;;;;;;10.40;7.97;;;;;;;9.40;100.00;101296.16;5015456;28;20129;-75
2022/11/11 02:48:19;;;;;;;15.30;7.50;;;;;;;9.39;100.00;101289.16;5015121;28;20076;-75
2022/11/11 02:50:45;;;;;;;12.13;9.00;;;;;;;9.34;100.00;101278.13;5014846;28;20049;-74
2022/11/11 02:53:11;;;;;;;12.37;8.37;;;;;;;9.32;100.00;101274.75;5020327;28;20030;-74
2022/11/11 02:55:36;;;;;;;14.63;8.93;;;;;;;9.27;100.00;101275.19;5013186;28;20082;-73
2022/11/11 02:58:02;;;;;;;14.23;7.83;;;;;;;9.28;100.00;101273.38;5014121;28;20022;-74
2022/11/11 03:00:28;;;;;;;12.90;8.10;;;;;;;9.31;100.00;101286.38;5032231;28;20053;-73
2022/11/11 03:02:54;;;;;;;14.23;8.60;;;;;;;9.28;100.00;101268.91;5023100;28;20458;-75
2022/11/11 03:05:19;;;;;;;9.13;6.90;;;;;;;9.28;100.00;101271.56;4997786;28;20034;-75
2022/11/11 03:07:45;;;;;;;9.43;7.50;;;;;;;9.30;100.00;101266.09;5015792;28;20207;-76
2022/11/11 03:10:10;;;;;;;12.23;7.27;;;;;;;9.37;100.00;101271.69;5015095;28;20022;-74
2022/11/11 03:12:36;;;;;;;13.03;7.17;;;;;;;9.38;100.00;101282.16;5015303;28;20038;-74
2022/11/11 03:15:03;;;;;;;8.80;7.17;;;;;;;9.38;100.00;101273.34;5014627;28;20318;-73
2022/11/11 03:17:39;;;;;;;10.73;6.77;;;;;;;9.27;100.00;101255.75;5014394;28;20030;-73
2022/11/11 03:23:15;;;;;;;9.07;7.00;;;;;;;9.40;100.00;101280.19;5034350;28;20050;-74
2022/11/11 03:25:47;;;;;;;13.73;7.20;;;;;;;9.37;100.00;101285.81;5035299;28;20033;-77
2022/11/11 03:28:15;;;;;;;18.00;9.00;;;;;;;9.38;100.00;101282.16;5035382;28;20053;-75
2022/11/11 03:30:43;;;;;;;13.23;8.45;;;;;;;9.44;100.00;101281.59;5015813;28;20041;-75
2022/11/11 03:33:09;;;;;;;12.57;7.70;;;;;;;9.43;100.00;101279.91;5015504;28;20076;-76
2022/11/11 03:35:35;;;;;;;13.13;8.30;;;;;;;9.25;100.00;101239.06;5015402;28;20040;-76
2022/11/11 03:38:15;;;;;;;12.13;7.60;;;;;;;9.40;100.00;101274.03;4997731;28;20068;-75
2022/11/11 03:40:42;;;;;;;10.63;7.97;;;;;;;9.43;100.00;101279.06;5015019;28;20030;-74
2022/11/11 03:43:08;;;;;;;11.27;7.97;;;;;;;9.40;100.00;101274.88;5015553;28;20025;-76
2022/11/11 03:45:33;;;;;;;10.70;8.47;;;;;;;9.42;100.00;101280.06;5014645;28;20457;-75
2022/11/11 03:48:04;;;;;;;13.50;8.10;;;;;;;9.37;100.00;101261.03;5015377;28;20033;-76
2022/11/11 03:50:30;;;;;;;13.47;7.70;;;;;;;9.44;100.00;101270.94;5015004;28;20197;-74
2022/11/11 03:52:56;;;;;;;11.43;8.37;;;;;;;9.38;100.00;101260.06;4997048;28;20090;-75
2022/11/11 03:55:22;;;;;;;11.40;7.43;;;;;;;9.44;100.00;101284.25;4996592;28;20089;-74
2022/11/11 03:57:48;;;;;;;16.60;8.10;;;;;;;9.42;100.00;101272.91;5014072;28;20531;-75
2022/11/11 04:00:17;;;;;;;8.37;7.37;;;;;;;9.45;100.00;101282.44;5014233;28;20038;-75
2022/11/11 04:11:01;;;;;;;12.37;8.17;;;;;;;9.40;100.00;101274.03;5014386;28;20026;-75
2022/11/11 04:16:11;;;;;;;12.13;8.10;;;;;;;9.39;100.00;101277.69;5013519;28;20021;-75
2022/11/11 04:21:44;;;;;;;15.45;8.65;;;;;;;9.38;100.00;101279.50;4963719;28;20096;-77
2022/11/11 04:27:06;;;;;;;10.00;7.10;;;;;;;9.37;100.00;101275.16;5013692;28;20113;-75
2022/11/11 04:29:32;;;;;;;;;;;;;;;9.43;100.00;101279.91;5013604;28;20469;-77
2022/11/11 04:34:52;;;;;;;11.60;8.50;;;;;;;9.26;100.00;101264.69;5013451;28;20037;-72
2022/11/11 04:37:19;;;;;;;17.67;8.47;;;;;;;9.19;100.00;101260.91;5013562;28;20504;-73
2022/11/11 04:42:30;;;;;;;15.70;8.53;;;;;;;9.22;100.00;101252.66;5012905;28;20029;-75
2022/11/11 04:48:05;;;;;;;18.13;9.37;;;;;;;9.23;100.00;101257.00;5013944;28;20026;-75
2022/11/11 04:50:44;;;;;;;11.40;8.00;;;;;;;9.19;100.00;101255.59;5013456;28;20046;-73
2022/11/11 04:53:12;;;;;;;12.20;8.00;;;;;;;9.16;100.00;101256.72;5013357;28;20046;-74
2022/11/11 04:59:15;;;;;;;10.33;7.63;;;;;;;9.08;100.00;101242.47;4995322;28;20040;-74
2022/11/11 05:04:25;;;;;;;11.57;8.63;;;;;;;9.03;100.00;101239.41;5013163;28;20065;-75
2022/11/11 05:09:34;;;;;;;10.67;7.80;;;;;;;8.95;100.00;101216.19;5013297;28;20026;-74
2022/11/11 05:12:00;;;;;;;9.30;7.80;;;;;;;9.02;100.00;101232.41;5016566;28;20022;-77
2022/11/11 05:22:39;;;;;;;12.73;7.83;;;;;;;9.02;100.00;101190.75;5013127;28;20026;-76
2022/11/11 05:25:24;;;;;;;13.03;7.70;;;;;;;9.09;100.00;101196.31;5013332;28;20065;-75
2022/11/11 05:27:49;;;;;;;13.67;7.60;;;;;;;9.03;100.00;101197.72;5013635;28;20038;-77
2022/11/11 05:30:16;;;;;;;10.80;7.10;;;;;;;8.98;100.00;101206.13;5013648;28;20041;-76
2022/11/11 05:32:42;;;;;;;8.47;5.60;;;;;;;8.96;100.00;101192.16;4995902;28;20029;-74
2022/11/11 05:35:09;;;;;;;13.97;6.47;;;;;;;8.97;100.00;101185.88;5012431;28;20029;-76
2022/11/11 05:37:35;;;;;;;8.57;5.20;;;;;;;9.03;100.00;101186.28;5013333;28;20030;-74
2022/11/11 05:40:00;;;;;;;10.17;5.10;;;;;;;9.06;100.00;101193.94;5012888;28;20036;-77
2022/11/11 05:42:26;;;;;;;10.17;4.77;;;;;;;9.07;100.00;101183.19;5012996;28;20466;-75
2022/11/11 05:44:52;;;;;;;5.80;3.83;;;;;;;8.83;100.00;101142.94;5012632;28;20544;-73
2022/11/11 05:47:17;;;;;;;11.10;4.83;;;;;;;9.10;100.00;101168.78;5013108;28;20030;-76
2022/11/11 05:49:43;;;;;;;5.00;3.70;;;;;;;9.10;100.00;101160.81;5013002;28;20034;-76
2022/11/11 05:52:11;;;;;;;8.47;3.63;;;;;;;9.08;100.00;101165.41;5012893;28;20560;-74
2022/11/11 05:54:37;;;;;;;8.60;3.90;;;;;;;8.98;100.00;101158.31;5014364;28;20134;-75
2022/11/11 05:57:03;;;;;;;5.87;3.90;;;;;;;8.90;100.00;101144.88;5015611;28;20029;-74
2022/11/11 05:59:29;;;;;;;8.70;5.00;;;;;;;8.88;100.00;101141.53;5016425;28;20041;-76
2022/11/11 06:01:55;;;;;;;7.93;3.77;;;;;;;8.78;100.00;101145.19;5016661;28;20026;-75
2022/11/11 06:04:20;;;;;;;5.97;3.80;;;;;;;8.69;100.00;101144.22;5015942;28;20057;-76
2022/11/11 06:06:46;;;;;;;11.03;3.73;;;;;;;8.62;100.00;101143.94;5016982;28;20484;-75
2022/11/11 06:09:11;;;;;;;9.23;5.00;;;;;;;8.68;100.00;101156.69;5017585;28;20030;-75
2022/11/11 06:11:37;;;;;;;9.23;3.30;;;;;;;8.61;100.00;101149.38;5017059;28;20030;-75
2022/11/11 06:14:03;;;;;;;6.70;3.57;;;;;;;8.67;100.00;101156.78;5016908;28;20076;-77
2022/11/11 06:16:29;;;;;;;9.60;3.43;;;;;;;8.66;100.00;101144.50;5016230;28;20188;-76
2022/11/11 06:18:54;;;;;;;6.43;3.90;;;;;;;8.68;100.00;101154.03;4999360;28;20497;-75
2022/11/11 06:21:20;;;;;;;6.73;4.47;;;;;;;8.64;100.00;101149.94;5017420;28;20033;-76
2022/11/11 06:23:45;;;;;;;9.00;4.27;;;;;;;8.63;100.00;101152.72;5018982;28;20532;-76
2022/11/11 06:26:11;;;;;;;11.00;3.80;;;;;;;8.61;100.00;101149.38;5016184;28;20029;-77
2022/11/11 06:28:58;;;;;;;11.13;3.80;;;;;;;8.57;100.00;101127.59;5016164;28;20033;-77
2022/11/11 06:31:26;;;;;;;9.00;4.40;;;;;;;8.63;100.00;101137.66;5015479;28;20034;-76
2022/11/11 06:33:52;;;;;;;7.60;3.57;;;;;;;8.62;100.00;101143.94;5016008;28;20466;-75
2022/11/11 06:36:20;;;;;;;6.03;3.63;;;;;;;8.56;100.00;101130.38;5016281;28;20029;-76
2022/11/11 06:38:46;;;;;;;7.53;3.63;;;;;;;8.62;100.00;101135.97;5016217;28;20040;-74
2022/11/11 06:41:12;;;;;;;6.27;3.60;;;;;;;8.61;100.00;101129.00;5015410;28;20458;-77
2022/11/11 06:43:42;;;;;;;7.73;3.87;;;;;;;8.68;100.00;101134.59;5015893;28;20026;-75
2022/11/11 06:46:19;;;;;;;4.93;3.43;;;;;;;8.65;100.00;101126.88;5016896;28;20496;-77
2022/11/11 06:48:45;;;;;;;6.70;3.87;;;;;;;8.63;100.00;101126.19;5018150;28;20092;-77
2022/11/11 06:51:12;;;;;;;6.60;4.10;;;;;;;8.63;100.00;101107.59;5022754;28;20057;-77
2022/11/11 06:54:04;;;;;;;8.03;2.70;;;;;;;8.67;100.00;101116.97;5035823;28;20059;-76
2022/11/11 06:56:30;;;;;;;13.40;4.73;;;;;;;8.69;99.33;101107.06;5035156;28;20515;-76
2022/11/11 06:58:55;;;;;;;5.73;2.83;;;;;;;8.68;99.28;101102.72;5035528;28;20033;-77
2022/11/11 07:01:21;;;;;;;6.73;3.00;;;;;;;8.70;98.62;101106.06;5017883;28;20049;-76
2022/11/11 07:03:46;;;;;;;13.67;4.47;;;;;;;8.69;99.00;101115.88;5036453;28;20034;-75
2022/11/11 07:06:12;;;;;;;9.90;3.20;;;;;;;8.64;98.12;101098.66;5016559;28;20029;-76
2022/11/11 07:08:37;;;;;;;11.47;3.30;;;;;;;8.74;97.48;101120.75;5035345;28;20400;-75
2022/11/11 07:11:03;;;;;;;6.10;2.53;;;;;;;8.80;97.61;101133.44;5034468;28;20112;-76
2022/11/11 07:13:28;;;;;;;6.93;2.80;;;;;;;8.77;97.02;101125.78;5018011;28;20029;-75
2022/11/11 07:15:54;;;;;;;10.37;3.03;;;;;;;8.73;97.28;101116.41;5035661;28;20044;-78
2022/11/11 07:18:19;;;;;;;9.00;4.07;;;;;;;8.88;97.29;101125.59;5035195;28;20378;-77
2022/11/11 07:20:45;;;;;;;13.20;5.23;;;;;;;8.79;97.63;101102.56;5035027;28;20368;-76
2022/11/11 07:23:10;;;;;;;3.77;3.03;;;;;;;8.88;96.68;101122.94;5035064;28;20025;-76
2022/11/11 07:25:36;;;;;;;8.70;3.13;;;;;;;8.89;96.83;101121.97;5034648;28;20431;-77
2022/11/11 07:28:02;;;;;;;6.27;3.10;;;;;;;8.87;97.00;101113.31;5034905;28;20030;-77
2022/11/11 07:30:28;;;;;;;11.43;5.07;;;;;;;8.85;97.22;101096.66;5034391;28;20068;-77
2022/11/11 07:32:53;;;;;;;8.47;2.77;;;;;;;8.84;98.02;101099.47;5034946;28;20075;-77
2022/11/11 07:35:37;;;;;;;6.77;2.90;;;;;;;8.82;98.43;101078.38;5034702;28;20025;-77
2022/11/11 07:38:06;;;;;;;7.83;3.37;;;;;;;8.78;98.49;101066.38;5034568;28;20076;-78
2022/11/11 07:40:31;;;;;;;7.22;2.60;;;;;;;8.76;98.72;101073.63;5034636;28;20021;-78
2022/11/11 07:42:57;;;;;;;6.67;2.70;;;;;;;8.72;97.88;101071.41;5016472;28;20025;-77
2022/11/11 07:45:22;;;;;;;10.80;3.83;;;;;;;8.77;98.47;101064.69;5035173;28;20029;-78
2022/11/11 07:47:48;;;;;;;7.40;2.60;;;;;;;8.70;97.56;101052.97;5034695;28;20036;-77
2022/11/11 07:50:13;;;;;;;7.33;2.83;;;;;;;8.74;97.78;101054.34;5016291;28;20022;-76
2022/11/11 07:52:40;;;;;;;12.20;3.40;;;;;;;8.81;98.09;101060.75;5034199;28;20465;-77
2022/11/11 07:55:07;;;;;;;11.33;2.90;;;;;;;8.78;97.84;101063.72;5016682;28;20035;-79
2022/11/11 07:57:32;;;;;;;14.30;3.73;;;;;;;8.85;97.78;101056.84;5034482;28;20033;-75
2022/11/11 07:59:58;;;;;;;10.13;3.07;;;;;;;8.80;98.03;101058.25;5034301;28;20424;-77
2022/11/11 08:02:23;;;;;;;10.60;3.40;;;;;;;8.77;97.62;101037.28;5034656;28;20029;-77
2022/11/11 08:04:49;;;;;;;10.43;3.37;;;;;;;8.81;97.74;101039.50;5034448;28;20477;-79
2022/11/11 08:07:15;;;;;;;14.00;3.37;;;;;;;8.86;97.51;101031.94;5034030;28;20028;-75
2022/11/11 08:09:41;;;;;;;8.10;3.50;;;;;;;8.83;98.20;101015.47;5016226;28;20021;-76
2022/11/11 08:14:52;;;;;;;13.70;4.20;;;;;;;8.80;97.97;101011.28;5034253;28;20060;-77
2022/11/11 08:17:23;;;;;;;8.23;3.30;;;;;;;8.81;98.89;101002.34;5033969;28;20033;-78
2022/11/11 08:19:49;;;;;;;8.77;3.37;;;;;;;8.88;97.86;101024.66;5033660;28;20569;-76
2022/11/11 08:22:14;;;;;;;13.07;3.83;;;;;;;8.85;98.67;101019.66;5033668;28;20166;-76
2022/11/11 08:24:40;;;;;;;8.07;3.90;;;;;;;8.82;98.11;101001.34;5033739;28;20029;-77
2022/11/11 08:27:05;;;;;;;9.47;3.40;;;;;;;8.83;98.61;100995.06;5033601;28;20354;-77
2022/11/11 08:29:31;;;;;;;16.27;4.33;;;;;;;8.90;99.19;100993.47;5033629;28;20052;-76
2022/11/11 08:31:56;;;;;;;10.07;3.33;;;;;;;8.92;98.63;100996.00;5016121;28;20029;-76
2022/11/11 08:34:22;;;;;;;8.53;4.37;;;;;;;8.90;99.15;100990.81;5033581;28;20080;-77
2022/11/11 08:36:47;;;;;;;9.47;3.37;;;;;;;8.90;99.41;100990.81;5033582;28;20060;-77
2022/11/11 08:43:13;;;;;;;8.10;3.13;;;;;;;8.78;99.46;100968.09;4950644;28;20050;-77
2022/11/11 08:45:39;;;;;;;8.93;2.80;;;;;;;8.88;99.68;100971.53;4965863;28;20045;-77
2022/11/11 08:48:09;;;;;;;11.30;3.50;;;;;;;8.89;99.38;100965.25;5034449;28;20052;-77
2022/11/11 08:50:39;;;;;;;14.25;3.33;;;;;;;8.89;100.00;100961.75;5034124;28;20058;-77
2022/11/11 08:53:06;;;;;;;9.77;3.10;;;;;;;8.82;100.00;100961.50;5034432;28;20401;-76
2022/11/11 08:59:13;;;;;;;7.03;2.53;;;;;;;8.49;100.00;100911.63;5037579;28;20120;-77
2022/11/11 09:01:38;;;;;;;8.13;3.53;;;;;;;8.68;100.00;100951.38;5037046;28;20033;-76
2022/11/11 09:04:05;;;;;;;7.93;3.40;;;;;;;8.68;100.00;100969.97;5039736;28;20129;-76
2022/11/11 09:06:30;;;;;;;10.07;4.10;;;;;;;8.69;100.00;100951.25;5037140;28;20093;-77
2022/11/11 09:08:56;;;;;;;16.57;3.53;;;;;;;8.70;100.00;100957.38;5035447;28;20035;-77
2022/11/11 09:11:21;;;;;;;11.03;3.47;;;;;;;8.64;100.00;100944.66;5033971;28;20036;-76
2022/11/11 09:13:47;;;;;;;13.87;4.30;;;;;;;8.63;100.00;100948.31;5015670;28;20022;-78
2022/11/11 09:16:13;;;;;;;16.40;3.73;;;;;;;8.59;100.00;100928.34;5032993;28;20108;-77
2022/11/11 09:18:39;;;;;;;6.63;3.50;;;;;;;8.61;100.00;100934.34;5032643;28;20349;-77
2022/11/11 09:21:05;;;;;;;10.47;3.97;;;;;;;8.65;100.00;100927.75;5033390;28;20029;-77
2022/11/11 09:23:43;;;;;;;11.53;3.77;;;;;;;8.69;100.00;100923.84;5033758;28;20116;-77
2022/11/11 09:26:20;;;;;;;11.53;3.10;;;;;;;8.64;100.00;100931.41;5034062;28;20065;-76
2022/11/11 09:28:46;;;;;;;8.87;3.13;;;;;;;8.64;100.00;100918.13;5034940;28;20029;-78
2022/11/11 09:31:11;;;;;;;9.43;3.00;;;;;;;8.64;100.00;100908.34;5020808;28;20031;-76
2022/11/11 09:33:36;;;;;;;6.17;3.13;;;;;;;8.64;100.00;100900.38;5038192;28;20033;-75
2022/11/11 09:36:02;;;;;;;7.03;3.10;;;;;;;8.52;100.00;100906.03;5038393;28;20108;-76
2022/11/11 09:38:27;;;;;;;5.17;3.20;;;;;;;8.50;100.00;100903.53;5038241;28;20033;-76
2022/11/11 09:41:10;;;;;;;4.43;3.10;;;;;;;8.50;100.00;100918.59;5038868;28;20437;-77
2022/11/11 09:43:45;;;;;;;6.03;2.90;;;;;;;8.38;100.00;100900.22;5038254;28;20029;-77
2022/11/11 09:46:32;;;;;;;7.63;2.57;;;;;;;8.38;100.00;100894.91;5038182;28;20025;-76
2022/11/11 09:49:19;;;;;;;9.13;3.37;;;;;;;8.37;100.00;100882.59;5037327;28;20038;-76
2022/11/11 09:52:18;;;;;;;6.63;2.80;;;;;;;8.40;100.00;100873.53;5037270;28;20053;-76
2022/11/11 09:54:51;;;;;;;8.47;2.80;;;;;;;8.40;100.00;100870.03;5037832;28;20041;-77
2022/11/11 09:57:57;;;;;;;4.77;3.70;;;;;;;8.42;100.00;100862.78;5037065;28;20033;-77
2022/11/11 10:00:29;;;;;;;5.60;3.00;;;;;;;8.41;100.00;100848.66;5037176;28;20029;-79
2022/11/11 10:03:05;;;;;;;6.33;2.90;;;;;;;8.44;100.00;100832.44;5037493;28;20018;-77
2022/11/11 10:06:02;;;;;;;7.97;3.03;;;;;;;8.47;100.00;100833.97;5037397;28;20052;-77
2022/11/11 10:09:17;;;;;;;4.60;2.27;;;;;;;8.47;100.00;100823.34;5037463;28;20160;-77
2022/11/11 10:11:59;;;;;;;5.43;3.07;;;;;;;8.51;100.00;100814.94;5036429;28;20469;-74
2022/11/11 10:14:33;;;;;;;8.60;3.07;;;;;;;8.50;100.00;100812.44;5042584;28;20049;-76
2022/11/11 10:17:28;;;;;;;6.63;3.80;;;;;;;8.51;100.00;100814.09;5047550;28;20035;-77
2022/11/11 10:20:08;;;;;;;11.77;3.63;;;;;;;8.54;100.00;100816.47;5035664;28;20093;-75
2022/11/11 10:22:36;;;;;;;7.17;2.60;;;;;;;8.56;100.00;100810.00;5047070;28;20085;-76
2022/11/11 10:25:25;;;;;;;4.85;2.78;;;;;;;8.69;100.00;100801.72;5044613;28;20025;-76
2022/11/11 10:27:53;;;;;;;;;;;;;;;8.75;100.00;100800.28;5048568;28;20029;-76
2022/11/11 10:30:20;;;;;;;9.73;3.67;;;;;;;8.79;100.00;100794.50;5047515;28;20379;-74
2022/11/11 10:33:13;;;;;;;8.53;3.10;;;;;;;8.79;100.00;100802.47;5047630;28;20410;-76
2022/11/11 10:35:41;;;;;;;7.73;2.87;;;;;;;8.79;100.00;100781.22;5016043;28;20056;-76
2022/11/11 10:38:09;;;;;;;5.03;2.70;;;;;;;8.85;100.00;100791.25;5047236;28;20048;-77
2022/11/11 10:40:41;;;;;;;4.35;3.20;;;;;;;8.88;100.00;100775.00;5041795;28;20089;-79
2022/11/11 10:43:24;;;;;;;3.87;2.50;;;;;;;8.91;100.00;100764.06;5036937;28;20029;-75
2022/11/11 10:46:28;;;;;;;6.80;2.97;;;;;;;9.00;100.00;100752.56;5036158;28;20083;-76
2022/11/11 10:49:15;;;;;;;4.80;2.83;;;;;;;9.04;100.00;100774.34;5036189;28;20029;-77
2022/11/11 10:51:51;;;;;;;3.80;2.47;;;;;;;9.08;100.00;100769.56;5036199;28;20049;-78
2022/11/11 10:54:22;;;;;;;10.27;5.87;;;;;;;9.03;100.00;100755.91;5036498;28;20056;-76
2022/11/11 10:57:04;;;;;;;4.70;3.03;;;;;;;9.13;100.00;100767.28;5018420;28;20105;-75
2022/11/11 11:00:00;;;;;;;6.83;3.00;;;;;;;9.14;100.00;100753.81;5036625;28;20033;-79
2022/11/11 11:02:47;;;;;;;4.43;2.90;;;;;;;9.18;100.00;100749.03;5035510;28;20025;-78
2022/11/11 11:05:21;;;;;;;6.63;3.00;;;;;;;9.18;100.00;100743.72;5036065;28;20041;-77
2022/11/11 11:11:51;;;;;;;4.07;2.87;;;;;;;9.08;100.00;100716.41;4956293;28;20491;-77
2022/11/11 11:14:26;;;;;;;5.40;2.87;;;;;;;9.16;100.00;100729.75;4954964;28;20114;-78
2022/11/11 11:16:55;;;;;;;4.77;3.10;;;;;;;9.24;100.00;100729.81;5031204;28;20051;-78
2022/11/11 11:19:25;;;;;;;3.90;2.58;;;;;;;9.25;100.00;100731.47;5037080;28;20055;-77
2022/11/11 11:21:53;;;;;;;4.37;2.50;;;;;;;9.20;100.00;100716.00;5035898;28;20414;-76
2022/11/11 11:24:35;;;;;;;5.40;3.33;;;;;;;9.21;100.00;100698.25;5018123;28;20025;-77
2022/11/11 11:27:06;;;;;;;3.67;2.30;;;;;;;9.29;100.00;100714.28;5017957;28;20064;-77
2022/11/11 11:29:41;;;;;;;4.97;2.97;;;;;;;9.32;100.00;100719.25;5034811;28;20040;-77
2022/11/11 11:32:20;;;;;;;4.80;2.80;;;;;;;9.33;100.00;100710.31;5035028;28;20033;-78
2022/11/11 11:34:56;;;;;;;5.10;2.83;;;;;;;9.35;100.00;100712.81;5034928;28;20025;-78
2022/11/11 11:37:23;;;;;;;3.57;2.43;;;;;;;9.29;100.00;100703.63;5034716;28;20056;-76
2022/11/11 11:40:02;;;;;;;4.00;2.50;;;;;;;9.13;100.00;100699.03;5034864;28;20044;-78
2022/11/11 11:42:35;;;;;;;3.63;2.30;;;;;;;9.10;100.00;100685.22;5034389;28;20365;-77
2022/11/11 11:45:21;;;;;;;5.37;3.03;;;;;;;9.03;100.00;100689.50;5034541;28;20030;-76
2022/11/11 11:47:58;;;;;;;3.57;2.40;;;;;;;9.05;100.00;100690.16;5034386;28;20484;-78
2022/11/11 11:50:51;;;;;;;7.28;3.08;;;;;;;9.06;100.00;100681.22;5034876;28;20029;-76
2022/11/11 11:53:35;;;;;;;5.10;2.80;;;;;;;9.07;100.00;100669.59;5034291;28;20041;-76
2022/11/11 11:56:24;;;;;;;4.57;3.33;;;;;;;9.05;100.00;100656.47;5034721;28;20041;-77
2022/11/11 11:58:59;;;;;;;6.17;3.23;;;;;;;9.07;100.00;100651.00;5017388;28;20030;-77
2022/11/11 12:01:39;;;;;;;4.53;2.90;;;;;;;9.06;100.00;100654.63;5035296;28;20037;-76
2022/11/11 12:04:07;;;;;;;4.97;2.72;;;;;;;9.04;100.00;100657.47;5017052;28;20033;-78
2022/11/11 12:06:52;;;;;;;4.10;2.95;;;;;;;9.07;100.00;100666.94;5033797;28;20037;-76
2022/11/11 12:09:40;;;;;;;6.63;3.17;;;;;;;9.07;100.00;100656.31;5034033;28;20445;-80
2022/11/11 12:12:25;;;;;;;5.33;3.00;;;;;;;9.09;100.00;100659.63;5033586;28;20029;-78
2022/11/11 12:15:09;;;;;;;4.80;2.83;;;;;;;9.08;100.00;100644.69;5033510;28;20025;-76
2022/11/11 12:17:58;;;;;;;5.37;2.70;;;;;;;9.06;100.00;100634.22;5034010;28;20120;-76
2022/11/11 12:20:34;;;;;;;4.67;2.80;;;;;;;9.05;100.00;100632.56;5033488;28;20056;-77
2022/11/11 12:23:25;;;;;;;6.37;3.10;;;;;;;9.08;100.00;100640.22;5033741;28;20025;-77
2022/11/11 12:26:15;;;;;;;6.07;3.60;;;;;;;9.04;100.00;100606.16;5035086;28;20120;-77
2022/11/11 12:28:51;;;;;;;4.50;2.67;;;;;;;9.08;100.00;100612.81;5035026;28;20067;-76
2022/11/11 12:32:01;;;;;;;7.13;3.00;;;;;;;9.11;100.00;100616.00;5034640;28;20033;-77
2022/11/11 12:34:50;;;;;;;6.17;2.73;;;;;;;9.13;100.00;100610.50;4955219;29;20111;-76
2022/11/11 12:38:03;;;;;;;3.80;3.23;;;;;;;9.10;100.00;100602.84;5016485;28;20154;-75
2022/11/11 12:41:01;;;;;;;6.40;3.63;;;;;;;9.06;100.00;100578.44;5030172;28;20064;-76
2022/11/11 12:43:43;;;;;;;8.73;2.80;;;;;;;9.11;100.00;100577.97;5044165;28;20034;-76
2022/11/11 12:46:28;;;;;;;3.67;2.17;;;;;;;9.09;100.00;100567.50;5033059;28;20068;-79
2022/11/11 12:49:39;;;;;;;3.93;2.50;;;;;;;9.10;100.00;100563.00;5027011;28;20036;-77
2022/11/11 12:52:14;;;;;;;3.20;2.60;;;;;;;9.08;100.00;100562.34;5011203;28;20071;-77
2022/11/11 12:55:04;;;;;;;5.03;2.50;;;;;;;9.08;100.00;100557.03;5024120;28;20041;-78
2022/11/11 12:57:39;;;;;;;4.17;2.30;;;;;;;9.04;100.00;100545.88;5007446;28;20117;-77
2022/11/11 13:00:18;;;;;;;3.60;2.40;;;;;;;9.10;100.00;100553.22;5018398;28;20029;-76
2022/11/11 13:03:02;;;;;;;4.00;2.10;;;;;;;9.14;100.00;100553.72;5012984;28;20068;-73
2022/11/11 13:05:51;;;;;;;3.27;2.17;;;;;;;9.18;100.00;100557.72;5012616;28;20117;-74
2022/11/11 13:08:48;;;;;;;2.40;2.20;;;;;;;9.19;100.00;100576.16;5001694;28;20041;-74
2022/11/11 13:11:46;;;;;;;2.72;2.05;;;;;;;9.19;100.00;100564.72;4996849;28;20026;-74